aviador You're here:

KMLP Decoded Metar

MULLAN PASS in ID, USA
Report Time2017-08-06 07:53:00
UTC Time2017-08-22 22:23:33
Flight Rules Old
Wind130° at 07 Gusting to 14 kt
W.Rank130° ranks 12
Current wind is above 130° avg. (6.9)
Visibility9999 m
Phenomena:N/A
Clouds:N/A
Expected CloudBase > 3,200 ft AGL from Temp-Dew spread
CeilingNone
Temp14°C (ISA +11)
Dew Point06°C (59% RH)
AAT10.6°C
QNH1022 hPa
Density Alt7,142 ft
Elevation6,027 ft
Report Wrong Elevation
Raw Report
METAR KMLP 060753Z AUTO 13007G14KT 10SM CLR 14/06 A3017 RMK AO2 SLP118
T01390056 402390111 TSNO=

Extra information for KMLP:More info

Metar Taf Metar & Taf Last 4 Metars F.Rules Stats Wind Profile Meteogram Temp Stats Airport Information Weather charts Add Link Nearby VenuesMetar ALERT Operation Metar Decoded Social comments

AIRNAV info for KMLP